sensor_id;sensor_type;location;lat;lon;timestamp;temperature;humidity
25024;DHT22;13033;50.936;5.334;2023-08-07T00:00:12;13.80;99.90
25024;DHT22;13033;50.936;5.334;2023-08-07T00:02:37;13.80;99.90
25024;DHT22;13033;50.936;5.334;2023-08-07T00:05:04;13.80;99.90
25024;DHT22;13033;50.936;5.334;2023-08-07T00:07:30;13.80;99.90
25024;DHT22;13033;50.936;5.334;2023-08-07T00:09:55;13.80;99.90
25024;DHT22;13033;50.936;5.334;2023-08-07T00:12:21;13.90;99.90
25024;DHT22;13033;50.936;5.334;2023-08-07T00:14:53;13.90;99.90
25024;DHT22;13033;50.936;5.334;2023-08-07T00:17:18;13.90;99.90
25024;DHT22;13033;50.936;5.334;2023-08-07T00:19:44;13.80;99.90
25024;DHT22;13033;50.936;5.334;2023-08-07T00:22:10;13.80;99.90
25024;DHT22;13033;50.936;5.334;2023-08-07T00:24:35;13.80;99.90
25024;DHT22;13033;50.936;5.334;2023-08-07T00:27:01;13.80;99.90
25024;DHT22;13033;50.936;5.334;2023-08-07T00:29:28;13.90;99.90
25024;DHT22;13033;50.936;5.334;2023-08-07T00:31:53;13.90;99.90
25024;DHT22;13033;50.936;5.334;2023-08-07T00:34:19;13.90;99.90
25024;DHT22;13033;50.936;5.334;2023-08-07T00:36:45;13.90;99.90
25024;DHT22;13033;50.936;5.334;2023-08-07T00:39:10;13.90;99.90
25024;DHT22;13033;50.936;5.334;2023-08-07T00:41:36;13.90;99.90
25024;DHT22;13033;50.936;5.334;2023-08-07T00:44:02;13.80;99.90
25024;DHT22;13033;50.936;5.334;2023-08-07T00:46:29;13.80;99.90
25024;DHT22;13033;50.936;5.334;2023-08-07T00:48:55;13.80;99.90
25024;DHT22;13033;50.936;5.334;2023-08-07T00:51:23;13.90;99.90
25024;DHT22;13033;50.936;5.334;2023-08-07T00:53:49;13.90;99.90
25024;DHT22;13033;50.936;5.334;2023-08-07T00:56:15;13.90;99.90
25024;DHT22;13033;50.936;5.334;2023-08-07T00:58:41;13.80;99.90
25024;DHT22;13033;50.936;5.334;2023-08-07T01:01:07;13.70;99.90
25024;DHT22;13033;50.936;5.334;2023-08-07T01:03:33;13.90;99.90
25024;DHT22;13033;50.936;5.334;2023-08-07T01:05:58;13.80;99.90
25024;DHT22;13033;50.936;5.334;2023-08-07T01:08:24;13.80;99.90
25024;DHT22;13033;50.936;5.334;2023-08-07T01:13:29;13.80;99.90
25024;DHT22;13033;50.936;5.334;2023-08-07T01:16:01;13.70;99.90
25024;DHT22;13033;50.936;5.334;2023-08-07T01:18:29;13.80;99.90
25024;DHT22;13033;50.936;5.334;2023-08-07T01:20:55;13.70;99.90
25024;DHT22;13033;50.936;5.334;2023-08-07T01:23:21;13.80;99.90
25024;DHT22;13033;50.936;5.334;2023-08-07T01:25:46;13.70;99.90
25024;DHT22;13033;50.936;5.334;2023-08-07T01:28:36;13.80;99.90
25024;DHT22;13033;50.936;5.334;2023-08-07T01:31:07;13.80;99.90
25024;DHT22;13033;50.936;5.334;2023-08-07T01:33:47;13.70;99.90
25024;DHT22;13033;50.936;5.334;2023-08-07T01:36:15;13.70;99.90
25024;DHT22;13033;50.936;5.334;2023-08-07T01:38:42;13.80;99.90
25024;DHT22;13033;50.936;5.334;2023-08-07T01:41:08;13.80;99.90
25024;DHT22;13033;50.936;5.334;2023-08-07T01:43:34;13.80;99.90
25024;DHT22;13033;50.936;5.334;2023-08-07T01:46:00;13.70;99.90
25024;DHT22;13033;50.936;5.334;2023-08-07T01:48:26;13.80;99.90
25024;DHT22;13033;50.936;5.334;2023-08-07T01:50:53;13.80;99.90
25024;DHT22;13033;50.936;5.334;2023-08-07T01:53:19;13.80;99.90
25024;DHT22;13033;50.936;5.334;2023-08-07T01:55:44;13.90;99.90
25024;DHT22;13033;50.936;5.334;2023-08-07T01:58:10;13.90;99.90
25024;DHT22;13033;50.936;5.334;2023-08-07T02:00:35;14.00;99.90
25024;DHT22;13033;50.936;5.334;2023-08-07T02:03:01;14.00;99.90
25024;DHT22;13033;50.936;5.334;2023-08-07T02:05:27;14.00;99.90
25024;DHT22;13033;50.936;5.334;2023-08-07T02:07:52;13.90;99.90
25024;DHT22;13033;50.936;5.334;2023-08-07T02:10:18;13.80;99.90
25024;DHT22;13033;50.936;5.334;2023-08-07T02:12:43;13.90;99.90
25024;DHT22;13033;50.936;5.334;2023-08-07T02:15:09;14.00;99.90
25024;DHT22;13033;50.936;5.334;2023-08-07T02:17:35;13.90;99.90
25024;DHT22;13033;50.936;5.334;2023-08-07T02:20:06;13.90;99.90
25024;DHT22;13033;50.936;5.334;2023-08-07T02:22:32;13.90;99.90
25024;DHT22;13033;50.936;5.334;2023-08-07T02:24:58;14.00;99.90
25024;DHT22;13033;50.936;5.334;2023-08-07T02:27:23;14.00;99.90
25024;DHT22;13033;50.936;5.334;2023-08-07T02:29:49;14.00;99.90
25024;DHT22;13033;50.936;5.334;2023-08-07T02:32:16;14.00;99.90
25024;DHT22;13033;50.936;5.334;2023-08-07T02:34:42;14.00;99.90
25024;DHT22;13033;50.936;5.334;2023-08-07T02:37:08;13.90;99.90
25024;DHT22;13033;50.936;5.334;2023-08-07T02:39:33;13.90;99.90
25024;DHT22;13033;50.936;5.334;2023-08-07T02:41:59;13.80;99.90
25024;DHT22;13033;50.936;5.334;2023-08-07T02:44:25;13.80;99.90
25024;DHT22;13033;50.936;5.334;2023-08-07T02:46:50;13.80;99.90
25024;DHT22;13033;50.936;5.334;2023-08-07T02:49:16;13.80;99.90
25024;DHT22;13033;50.936;5.334;2023-08-07T02:51:41;13.80;99.90
25024;DHT22;13033;50.936;5.334;2023-08-07T02:54:07;13.80;99.90
25024;DHT22;13033;50.936;5.334;2023-08-07T02:56:33;13.80;99.90
25024;DHT22;13033;50.936;5.334;2023-08-07T02:58:59;13.80;99.90
25024;DHT22;13033;50.936;5.334;2023-08-07T03:01:27;13.70;99.90
25024;DHT22;13033;50.936;5.334;2023-08-07T03:03:53;13.70;99.90
25024;DHT22;13033;50.936;5.334;2023-08-07T03:06:18;13.70;99.90
25024;DHT22;13033;50.936;5.334;2023-08-07T03:08:44;13.70;99.90
25024;DHT22;13033;50.936;5.334;2023-08-07T03:11:10;13.70;99.90
25024;DHT22;13033;50.936;5.334;2023-08-07T03:13:36;13.80;99.90
25024;DHT22;13033;50.936;5.334;2023-08-07T03:16:05;13.70;99.90
25024;DHT22;13033;50.936;5.334;2023-08-07T03:18:33;13.70;99.90
25024;DHT22;13033;50.936;5.334;2023-08-07T03:20:59;13.70;99.90
25024;DHT22;13033;50.936;5.334;2023-08-07T03:23:25;13.70;99.90
25024;DHT22;13033;50.936;5.334;2023-08-07T03:25:51;13.60;99.90
25024;DHT22;13033;50.936;5.334;2023-08-07T03:28:26;13.60;99.90
25024;DHT22;13033;50.936;5.334;2023-08-07T03:30:52;13.50;99.90
25024;DHT22;13033;50.936;5.334;2023-08-07T03:33:17;13.40;99.90
25024;DHT22;13033;50.936;5.334;2023-08-07T03:35:43;13.40;99.90
25024;DHT22;13033;50.936;5.334;2023-08-07T03:38:08;13.30;99.90
25024;DHT22;13033;50.936;5.334;2023-08-07T03:40:34;13.40;99.90
25024;DHT22;13033;50.936;5.334;2023-08-07T03:43:00;13.30;99.90
25024;DHT22;13033;50.936;5.334;2023-08-07T03:45:25;13.20;99.90
25024;DHT22;13033;50.936;5.334;2023-08-07T03:47:51;13.20;99.90
25024;DHT22;13033;50.936;5.334;2023-08-07T03:50:17;13.20;99.90
25024;DHT22;13033;50.936;5.334;2023-08-07T03:52:42;13.20;99.90
25024;DHT22;13033;50.936;5.334;2023-08-07T03:55:08;13.10;99.90
25024;DHT22;13033;50.936;5.334;2023-08-07T03:57:34;13.00;99.90
25024;DHT22;13033;50.936;5.334;2023-08-07T04:00:00;13.10;99.90
25024;DHT22;13033;50.936;5.334;2023-08-07T04:02:25;13.20;99.90
25024;DHT22;13033;50.936;5.334;2023-08-07T04:04:51;13.20;99.90
25024;DHT22;13033;50.936;5.334;2023-08-07T04:07:16;13.10;99.90
25024;DHT22;13033;50.936;5.334;2023-08-07T04:09:42;13.00;99.90
25024;DHT22;13033;50.936;5.334;2023-08-07T04:12:08;13.00;99.90
25024;DHT22;13033;50.936;5.334;2023-08-07T04:14:39;13.10;99.90
25024;DHT22;13033;50.936;5.334;2023-08-07T04:17:05;13.10;99.90
25024;DHT22;13033;50.936;5.334;2023-08-07T04:19:31;13.10;99.90
25024;DHT22;13033;50.936;5.334;2023-08-07T04:21:56;13.10;99.90
25024;DHT22;13033;50.936;5.334;2023-08-07T04:24:22;13.10;99.90
25024;DHT22;13033;50.936;5.334;2023-08-07T04:26:48;13.10;99.90
25024;DHT22;13033;50.936;5.334;2023-08-07T04:29:13;13.00;99.90
25024;DHT22;13033;50.936;5.334;2023-08-07T04:31:39;13.10;99.90
25024;DHT22;13033;50.936;5.334;2023-08-07T04:34:04;13.10;99.90
25024;DHT22;13033;50.936;5.334;2023-08-07T04:36:30;13.10;99.90
25024;DHT22;13033;50.936;5.334;2023-08-07T04:38:56;13.10;99.90
25024;DHT22;13033;50.936;5.334;2023-08-07T04:41:22;13.00;99.90
25024;DHT22;13033;50.936;5.334;2023-08-07T04:43:47;13.00;99.90
25024;DHT22;13033;50.936;5.334;2023-08-07T04:46:14;13.10;99.90
25024;DHT22;13033;50.936;5.334;2023-08-07T04:48:40;13.10;99.90
25024;DHT22;13033;50.936;5.334;2023-08-07T04:51:06;13.00;99.90
25024;DHT22;13033;50.936;5.334;2023-08-07T04:53:32;13.00;99.90
25024;DHT22;13033;50.936;5.334;2023-08-07T04:55:59;13.00;99.90
25024;DHT22;13033;50.936;5.334;2023-08-07T04:58:25;13.10;99.90
25024;DHT22;13033;50.936;5.334;2023-08-07T05:00:57;13.10;99.90
25024;DHT22;13033;50.936;5.334;2023-08-07T05:03:24;13.10;99.90
25024;DHT22;13033;50.936;5.334;2023-08-07T05:05:50;13.10;99.90
25024;DHT22;13033;50.936;5.334;2023-08-07T05:08:17;13.20;99.90
25024;DHT22;13033;50.936;5.334;2023-08-07T05:10:42;13.20;99.90
25024;DHT22;13033;50.936;5.334;2023-08-07T05:13:08;13.30;99.90
25024;DHT22;13033;50.936;5.334;2023-08-07T05:15:34;13.30;99.90
25024;DHT22;13033;50.936;5.334;2023-08-07T05:17:59;13.40;99.90
25024;DHT22;13033;50.936;5.334;2023-08-07T05:20:25;13.40;99.90
25024;DHT22;13033;50.936;5.334;2023-08-07T05:22:51;13.40;99.90
25024;DHT22;13033;50.936;5.334;2023-08-07T05:25:17;13.50;99.90
25024;DHT22;13033;50.936;5.334;2023-08-07T05:27:43;13.40;99.90
25024;DHT22;13033;50.936;5.334;2023-08-07T05:30:09;13.30;99.90
25024;DHT22;13033;50.936;5.334;2023-08-07T05:32:35;13.40;99.90
25024;DHT22;13033;50.936;5.334;2023-08-07T05:35:05;13.40;99.90
25024;DHT22;13033;50.936;5.334;2023-08-07T05:37:30;13.50;99.90
25024;DHT22;13033;50.936;5.334;2023-08-07T05:39:57;13.60;99.90
25024;DHT22;13033;50.936;5.334;2023-08-07T05:42:23;13.60;99.90
25024;DHT22;13033;50.936;5.334;2023-08-07T05:44:48;13.60;99.90
25024;DHT22;13033;50.936;5.334;2023-08-07T05:47:14;13.70;99.90
25024;DHT22;13033;50.936;5.334;2023-08-07T05:49:40;13.80;99.90
25024;DHT22;13033;50.936;5.334;2023-08-07T05:52:06;13.90;99.90
25024;DHT22;13033;50.936;5.334;2023-08-07T05:54:32;14.00;99.90
25024;DHT22;13033;50.936;5.334;2023-08-07T05:56:58;14.00;99.90
25024;DHT22;13033;50.936;5.334;2023-08-07T05:59:23;14.10;99.90
25024;DHT22;13033;50.936;5.334;2023-08-07T06:01:49;14.10;99.90
25024;DHT22;13033;50.936;5.334;2023-08-07T06:04:15;14.10;99.90
25024;DHT22;13033;50.936;5.334;2023-08-07T06:06:40;14.00;99.90
25024;DHT22;13033;50.936;5.334;2023-08-07T06:09:08;14.10;99.90
25024;DHT22;13033;50.936;5.334;2023-08-07T06:11:33;14.20;99.90
25024;DHT22;13033;50.936;5.334;2023-08-07T06:13:59;14.30;99.90
25024;DHT22;13033;50.936;5.334;2023-08-07T06:16:25;14.30;99.90
25024;DHT22;13033;50.936;5.334;2023-08-07T06:18:51;14.30;99.90
25024;DHT22;13033;50.936;5.334;2023-08-07T06:21:16;14.40;99.90
25024;DHT22;13033;50.936;5.334;2023-08-07T06:23:42;14.50;99.90
25024;DHT22;13033;50.936;5.334;2023-08-07T06:26:08;14.60;99.90
25024;DHT22;13033;50.936;5.334;2023-08-07T06:28:34;14.80;99.90
25024;DHT22;13033;50.936;5.334;2023-08-07T06:31:09;14.80;99.90
25024;DHT22;13033;50.936;5.334;2023-08-07T06:33:35;14.90;99.90
25024;DHT22;13033;50.936;5.334;2023-08-07T06:36:03;14.90;99.90
25024;DHT22;13033;50.936;5.334;2023-08-07T06:38:29;14.90;99.90
25024;DHT22;13033;50.936;5.334;2023-08-07T06:40:55;14.90;99.90
25024;DHT22;13033;50.936;5.334;2023-08-07T06:43:21;15.00;99.90
25024;DHT22;13033;50.936;5.334;2023-08-07T06:45:50;15.10;99.90
25024;DHT22;13033;50.936;5.334;2023-08-07T06:48:16;15.20;99.90
25024;DHT22;13033;50.936;5.334;2023-08-07T06:50:41;15.10;99.90
25024;DHT22;13033;50.936;5.334;2023-08-07T06:53:07;15.10;99.90
25024;DHT22;13033;50.936;5.334;2023-08-07T06:55:33;15.10;99.90
25024;DHT22;13033;50.936;5.334;2023-08-07T06:57:59;15.00;99.90
25024;DHT22;13033;50.936;5.334;2023-08-07T07:00:25;15.10;99.90
25024;DHT22;13033;50.936;5.334;2023-08-07T07:02:50;15.30;99.90
25024;DHT22;13033;50.936;5.334;2023-08-07T07:05:16;15.50;99.90
25024;DHT22;13033;50.936;5.334;2023-08-07T07:07:42;15.50;99.90
25024;DHT22;13033;50.936;5.334;2023-08-07T07:10:08;15.60;99.90
25024;DHT22;13033;50.936;5.334;2023-08-07T07:12:34;15.60;99.90
25024;DHT22;13033;50.936;5.334;2023-08-07T07:14:59;15.60;99.90
25024;DHT22;13033;50.936;5.334;2023-08-07T07:17:25;15.70;99.90
25024;DHT22;13033;50.936;5.334;2023-08-07T07:19:50;15.70;99.90
25024;DHT22;13033;50.936;5.334;2023-08-07T07:22:16;15.90;99.90
25024;DHT22;13033;50.936;5.334;2023-08-07T07:24:42;16.00;99.90
25024;DHT22;13033;50.936;5.334;2023-08-07T07:27:07;16.00;99.90
25024;DHT22;13033;50.936;5.334;2023-08-07T07:29:33;16.10;99.90
25024;DHT22;13033;50.936;5.334;2023-08-07T07:31:59;16.30;99.90
25024;DHT22;13033;50.936;5.334;2023-08-07T07:34:24;16.20;99.90
25024;DHT22;13033;50.936;5.334;2023-08-07T07:36:50;16.20;99.90
25024;DHT22;13033;50.936;5.334;2023-08-07T07:39:16;16.20;99.90
25024;DHT22;13033;50.936;5.334;2023-08-07T07:41:42;16.40;99.90
25024;DHT22;13033;50.936;5.334;2023-08-07T07:44:08;16.60;99.90
25024;DHT22;13033;50.936;5.334;2023-08-07T07:46:34;16.70;99.90
25024;DHT22;13033;50.936;5.334;2023-08-07T07:49:00;16.90;99.90
25024;DHT22;13033;50.936;5.334;2023-08-07T07:51:26;16.90;99.90
25024;DHT22;13033;50.936;5.334;2023-08-07T07:53:52;17.00;99.90
25024;DHT22;13033;50.936;5.334;2023-08-07T07:56:18;17.00;99.90
25024;DHT22;13033;50.936;5.334;2023-08-07T07:58:43;17.10;99.90
25024;DHT22;13033;50.936;5.334;2023-08-07T08:01:09;17.10;99.90
25024;DHT22;13033;50.936;5.334;2023-08-07T08:03:35;17.00;99.90
25024;DHT22;13033;50.936;5.334;2023-08-07T08:06:00;16.90;99.90
25024;DHT22;13033;50.936;5.334;2023-08-07T08:08:26;17.00;99.90
25024;DHT22;13033;50.936;5.334;2023-08-07T08:10:52;16.90;99.90
25024;DHT22;13033;50.936;5.334;2023-08-07T08:13:18;17.00;99.90
25024;DHT22;13033;50.936;5.334;2023-08-07T08:15:44;17.00;99.90
25024;DHT22;13033;50.936;5.334;2023-08-07T08:18:10;17.00;99.90
25024;DHT22;13033;50.936;5.334;2023-08-07T08:20:37;17.00;99.90
25024;DHT22;13033;50.936;5.334;2023-08-07T08:23:03;17.10;99.90
25024;DHT22;13033;50.936;5.334;2023-08-07T08:25:29;16.90;99.90
25024;DHT22;13033;50.936;5.334;2023-08-07T08:27:54;17.10;99.90
25024;DHT22;13033;50.936;5.334;2023-08-07T08:30:20;17.30;99.90
25024;DHT22;13033;50.936;5.334;2023-08-07T08:32:46;17.30;99.90
25024;DHT22;13033;50.936;5.334;2023-08-07T08:35:12;17.30;99.90
25024;DHT22;13033;50.936;5.334;2023-08-07T08:37:37;17.20;99.90
25024;DHT22;13033;50.936;5.334;2023-08-07T08:40:03;16.90;99.90
25024;DHT22;13033;50.936;5.334;2023-08-07T08:42:32;17.00;99.90
25024;DHT22;13033;50.936;5.334;2023-08-07T08:44:59;17.00;99.90
25024;DHT22;13033;50.936;5.334;2023-08-07T08:47:26;17.10;99.90
25024;DHT22;13033;50.936;5.334;2023-08-07T08:50:02;17.30;99.90
25024;DHT22;13033;50.936;5.334;2023-08-07T08:52:31;17.50;99.90
25024;DHT22;13033;50.936;5.334;2023-08-07T08:54:57;17.80;99.90
25024;DHT22;13033;50.936;5.334;2023-08-07T08:57:25;18.00;99.90
25024;DHT22;13033;50.936;5.334;2023-08-07T08:59:52;17.90;99.90
25024;DHT22;13033;50.936;5.334;2023-08-07T09:02:18;18.00;99.90
25024;DHT22;13033;50.936;5.334;2023-08-07T09:04:46;18.30;99.90
25024;DHT22;13033;50.936;5.334;2023-08-07T09:07:14;18.30;99.90
25024;DHT22;13033;50.936;5.334;2023-08-07T09:09:40;18.10;99.90
25024;DHT22;13033;50.936;5.334;2023-08-07T09:12:09;18.00;99.90
25024;DHT22;13033;50.936;5.334;2023-08-07T09:14:37;17.90;99.90
25024;DHT22;13033;50.936;5.334;2023-08-07T09:17:05;18.00;99.90
25024;DHT22;13033;50.936;5.334;2023-08-07T09:19:31;17.90;99.90
25024;DHT22;13033;50.936;5.334;2023-08-07T09:21:57;17.70;99.90
25024;DHT22;13033;50.936;5.334;2023-08-07T09:24:22;17.60;99.90
25024;DHT22;13033;50.936;5.334;2023-08-07T09:26:50;17.80;99.90
25024;DHT22;13033;50.936;5.334;2023-08-07T09:29:17;17.80;99.90
25024;DHT22;13033;50.936;5.334;2023-08-07T09:31:43;17.60;99.90
25024;DHT22;13033;50.936;5.334;2023-08-07T09:34:12;17.60;99.90
25024;DHT22;13033;50.936;5.334;2023-08-07T09:36:42;17.40;99.90
25024;DHT22;13033;50.936;5.334;2023-08-07T09:39:07;17.40;99.90
25024;DHT22;13033;50.936;5.334;2023-08-07T09:41:33;17.50;99.90
25024;DHT22;13033;50.936;5.334;2023-08-07T09:44:06;17.80;99.90
25024;DHT22;13033;50.936;5.334;2023-08-07T09:46:41;17.90;99.90
25024;DHT22;13033;50.936;5.334;2023-08-07T09:49:07;18.20;99.90
25024;DHT22;13033;50.936;5.334;2023-08-07T09:51:46;18.50;99.90
25024;DHT22;13033;50.936;5.334;2023-08-07T09:54:12;18.70;99.90
25024;DHT22;13033;50.936;5.334;2023-08-07T09:56:41;18.50;99.90
25024;DHT22;13033;50.936;5.334;2023-08-07T09:59:07;18.10;99.90
25024;DHT22;13033;50.936;5.334;2023-08-07T10:01:36;17.70;99.90
25024;DHT22;13033;50.936;5.334;2023-08-07T10:04:01;17.50;99.90
25024;DHT22;13033;50.936;5.334;2023-08-07T10:06:27;17.50;99.90
25024;DHT22;13033;50.936;5.334;2023-08-07T10:08:54;17.60;99.90
25024;DHT22;13033;50.936;5.334;2023-08-07T10:11:20;17.70;99.90
25024;DHT22;13033;50.936;5.334;2023-08-07T10:13:47;17.90;99.90
25024;DHT22;13033;50.936;5.334;2023-08-07T10:16:13;18.40;99.90
25024;DHT22;13033;50.936;5.334;2023-08-07T10:18:39;18.70;99.90
25024;DHT22;13033;50.936;5.334;2023-08-07T10:21:06;18.70;99.90
25024;DHT22;13033;50.936;5.334;2023-08-07T10:23:35;19.00;99.90
25024;DHT22;13033;50.936;5.334;2023-08-07T10:26:04;19.00;99.90
25024;DHT22;13033;50.936;5.334;2023-08-07T10:28:33;19.00;99.90
25024;DHT22;13033;50.936;5.334;2023-08-07T10:31:04;19.10;99.90
25024;DHT22;13033;50.936;5.334;2023-08-07T10:33:30;19.20;99.90
25024;DHT22;13033;50.936;5.334;2023-08-07T10:35:57;19.40;99.90
25024;DHT22;13033;50.936;5.334;2023-08-07T10:38:25;19.60;99.90
25024;DHT22;13033;50.936;5.334;2023-08-07T10:41:07;19.60;99.90
25024;DHT22;13033;50.936;5.334;2023-08-07T10:43:43;19.50;99.90
25024;DHT22;13033;50.936;5.334;2023-08-07T10:46:20;19.40;99.90
25024;DHT22;13033;50.936;5.334;2023-08-07T10:48:49;19.50;99.90
25024;DHT22;13033;50.936;5.334;2023-08-07T10:51:18;19.40;99.90
25024;DHT22;13033;50.936;5.334;2023-08-07T10:53:48;19.30;99.90
25024;DHT22;13033;50.936;5.334;2023-08-07T10:56:32;19.30;99.90
25024;DHT22;13033;50.936;5.334;2023-08-07T10:58:58;19.30;99.90
25024;DHT22;13033;50.936;5.334;2023-08-07T11:03:59;19.80;99.90
25024;DHT22;13033;50.936;5.334;2023-08-07T11:06:30;20.00;99.90
25024;DHT22;13033;50.936;5.334;2023-08-07T11:09:00;19.90;99.90
25024;DHT22;13033;50.936;5.334;2023-08-07T11:11:30;19.70;99.90
25024;DHT22;13033;50.936;5.334;2023-08-07T11:14:00;19.70;99.90
25024;DHT22;13033;50.936;5.334;2023-08-07T11:16:26;19.70;99.90
25024;DHT22;13033;50.936;5.334;2023-08-07T11:18:53;19.60;99.90
25024;DHT22;13033;50.936;5.334;2023-08-07T11:21:19;19.30;99.90
25024;DHT22;13033;50.936;5.334;2023-08-07T11:23:45;19.30;99.90
25024;DHT22;13033;50.936;5.334;2023-08-07T11:26:12;19.40;99.90
25024;DHT22;13033;50.936;5.334;2023-08-07T11:28:37;19.60;99.90
25024;DHT22;13033;50.936;5.334;2023-08-07T11:31:03;19.70;99.90
25024;DHT22;13033;50.936;5.334;2023-08-07T11:33:29;20.10;99.90
25024;DHT22;13033;50.936;5.334;2023-08-07T11:35:55;20.30;99.90
25024;DHT22;13033;50.936;5.334;2023-08-07T11:38:38;20.10;99.90
25024;DHT22;13033;50.936;5.334;2023-08-07T11:41:07;19.90;99.90
25024;DHT22;13033;50.936;5.334;2023-08-07T11:43:34;19.90;99.90
25024;DHT22;13033;50.936;5.334;2023-08-07T11:46:03;19.90;99.90
25024;DHT22;13033;50.936;5.334;2023-08-07T11:48:30;19.80;99.90
25024;DHT22;13033;50.936;5.334;2023-08-07T11:50:57;19.70;99.90
25024;DHT22;13033;50.936;5.334;2023-08-07T11:53:25;19.50;99.90
25024;DHT22;13033;50.936;5.334;2023-08-07T11:55:52;19.50;99.90
25024;DHT22;13033;50.936;5.334;2023-08-07T11:58:22;19.70;99.90
25024;DHT22;13033;50.936;5.334;2023-08-07T12:00:47;19.90;99.90
25024;DHT22;13033;50.936;5.334;2023-08-07T12:03:30;20.00;99.90
25024;DHT22;13033;50.936;5.334;2023-08-07T12:05:58;20.00;99.90
25024;DHT22;13033;50.936;5.334;2023-08-07T12:08:25;20.10;99.90
25024;DHT22;13033;50.936;5.334;2023-08-07T12:10:54;20.50;99.90
25024;DHT22;13033;50.936;5.334;2023-08-07T12:13:26;20.50;99.90
25024;DHT22;13033;50.936;5.334;2023-08-07T12:15:56;20.40;99.90
25024;DHT22;13033;50.936;5.334;2023-08-07T12:18:22;20.50;99.90
25024;DHT22;13033;50.936;5.334;2023-08-07T12:20:50;20.50;99.90
25024;DHT22;13033;50.936;5.334;2023-08-07T12:23:16;20.50;99.90
25024;DHT22;13033;50.936;5.334;2023-08-07T12:25:43;20.40;99.90
25024;DHT22;13033;50.936;5.334;2023-08-07T12:28:08;20.50;99.90
25024;DHT22;13033;50.936;5.334;2023-08-07T12:30:35;20.50;99.90
25024;DHT22;13033;50.936;5.334;2023-08-07T12:33:00;20.30;99.90
25024;DHT22;13033;50.936;5.334;2023-08-07T12:35:28;20.30;99.90
25024;DHT22;13033;50.936;5.334;2023-08-07T12:37:54;20.20;99.90
25024;DHT22;13033;50.936;5.334;2023-08-07T12:40:19;20.40;99.90
25024;DHT22;13033;50.936;5.334;2023-08-07T12:42:46;20.50;99.90
25024;DHT22;13033;50.936;5.334;2023-08-07T12:45:13;20.60;99.90
25024;DHT22;13033;50.936;5.334;2023-08-07T12:47:41;20.70;99.90
25024;DHT22;13033;50.936;5.334;2023-08-07T12:50:08;21.00;99.90
25024;DHT22;13033;50.936;5.334;2023-08-07T12:52:34;21.10;99.90
25024;DHT22;13033;50.936;5.334;2023-08-07T12:55:00;21.00;99.90
25024;DHT22;13033;50.936;5.334;2023-08-07T12:57:26;20.90;99.90
25024;DHT22;13033;50.936;5.334;2023-08-07T12:59:52;20.90;99.90
25024;DHT22;13033;50.936;5.334;2023-08-07T13:02:17;20.90;99.90
25024;DHT22;13033;50.936;5.334;2023-08-07T13:04:43;21.00;99.90
25024;DHT22;13033;50.936;5.334;2023-08-07T13:07:09;21.10;99.90
25024;DHT22;13033;50.936;5.334;2023-08-07T13:09:34;21.50;99.90
25024;DHT22;13033;50.936;5.334;2023-08-07T13:12:00;21.60;99.90
25024;DHT22;13033;50.936;5.334;2023-08-07T13:14:26;21.80;99.90
25024;DHT22;13033;50.936;5.334;2023-08-07T13:16:52;21.70;99.90
25024;DHT22;13033;50.936;5.334;2023-08-07T13:19:17;21.70;99.90
25024;DHT22;13033;50.936;5.334;2023-08-07T13:21:43;21.80;99.90
25024;DHT22;13033;50.936;5.334;2023-08-07T13:24:09;21.80;99.90
25024;DHT22;13033;50.936;5.334;2023-08-07T13:26:35;21.70;99.90
25024;DHT22;13033;50.936;5.334;2023-08-07T13:29:00;21.40;99.90
25024;DHT22;13033;50.936;5.334;2023-08-07T13:31:26;21.30;99.90
25024;DHT22;13033;50.936;5.334;2023-08-07T13:33:52;21.30;99.90
25024;DHT22;13033;50.936;5.334;2023-08-07T13:36:17;20.90;99.90
25024;DHT22;13033;50.936;5.334;2023-08-07T13:38:43;20.70;99.90
25024;DHT22;13033;50.936;5.334;2023-08-07T13:41:09;20.60;99.90
25024;DHT22;13033;50.936;5.334;2023-08-07T13:43:34;20.90;99.90
25024;DHT22;13033;50.936;5.334;2023-08-07T13:46:00;20.70;99.90
25024;DHT22;13033;50.936;5.334;2023-08-07T13:48:25;20.90;99.90
25024;DHT22;13033;50.936;5.334;2023-08-07T13:50:52;21.00;99.90
25024;DHT22;13033;50.936;5.334;2023-08-07T13:53:18;21.20;99.90
25024;DHT22;13033;50.936;5.334;2023-08-07T13:55:45;21.10;99.90
25024;DHT22;13033;50.936;5.334;2023-08-07T13:58:12;21.40;99.90
25024;DHT22;13033;50.936;5.334;2023-08-07T14:00:40;21.40;99.90
25024;DHT22;13033;50.936;5.334;2023-08-07T14:03:06;21.40;99.90
25024;DHT22;13033;50.936;5.334;2023-08-07T14:05:32;21.70;99.90
25024;DHT22;13033;50.936;5.334;2023-08-07T14:07:57;21.90;99.90
25024;DHT22;13033;50.936;5.334;2023-08-07T14:10:23;21.90;99.90
25024;DHT22;13033;50.936;5.334;2023-08-07T14:12:49;22.00;99.90
25024;DHT22;13033;50.936;5.334;2023-08-07T14:15:14;22.10;99.90
25024;DHT22;13033;50.936;5.334;2023-08-07T14:17:40;21.90;99.90
25024;DHT22;13033;50.936;5.334;2023-08-07T14:20:06;21.60;99.90
25024;DHT22;13033;50.936;5.334;2023-08-07T14:22:33;21.50;99.90
25024;DHT22;13033;50.936;5.334;2023-08-07T14:25:02;21.40;99.90
25024;DHT22;13033;50.936;5.334;2023-08-07T14:27:28;21.40;99.90
25024;DHT22;13033;50.936;5.334;2023-08-07T14:29:54;21.50;99.90
25024;DHT22;13033;50.936;5.334;2023-08-07T14:32:19;21.70;99.90
25024;DHT22;13033;50.936;5.334;2023-08-07T14:34:45;21.60;99.90
25024;DHT22;13033;50.936;5.334;2023-08-07T14:37:13;21.30;99.90
25024;DHT22;13033;50.936;5.334;2023-08-07T14:39:38;21.20;99.90
25024;DHT22;13033;50.936;5.334;2023-08-07T14:42:04;21.10;99.90
25024;DHT22;13033;50.936;5.334;2023-08-07T14:44:30;21.00;99.90
25024;DHT22;13033;50.936;5.334;2023-08-07T14:46:55;21.00;99.90
25024;DHT22;13033;50.936;5.334;2023-08-07T14:49:21;21.10;99.90
25024;DHT22;13033;50.936;5.334;2023-08-07T14:51:47;21.40;99.90
25024;DHT22;13033;50.936;5.334;2023-08-07T14:54:13;22.10;99.90
25024;DHT22;13033;50.936;5.334;2023-08-07T14:56:38;22.20;99.90
25024;DHT22;13033;50.936;5.334;2023-08-07T14:59:04;22.30;99.90
25024;DHT22;13033;50.936;5.334;2023-08-07T15:01:29;22.30;99.90
25024;DHT22;13033;50.936;5.334;2023-08-07T15:03:56;22.10;99.90
25024;DHT22;13033;50.936;5.334;2023-08-07T15:06:22;21.80;99.90
25024;DHT22;13033;50.936;5.334;2023-08-07T15:08:47;21.70;99.90
25024;DHT22;13033;50.936;5.334;2023-08-07T15:11:14;22.60;99.90
25024;DHT22;13033;50.936;5.334;2023-08-07T15:13:40;23.30;99.90
25024;DHT22;13033;50.936;5.334;2023-08-07T15:16:05;23.70;99.90
25024;DHT22;13033;50.936;5.334;2023-08-07T15:18:31;23.30;99.90
25024;DHT22;13033;50.936;5.334;2023-08-07T15:20:59;22.70;99.90
25024;DHT22;13033;50.936;5.334;2023-08-07T15:23:26;22.30;99.90
25024;DHT22;13033;50.936;5.334;2023-08-07T15:25:52;22.00;99.90
25024;DHT22;13033;50.936;5.334;2023-08-07T15:28:18;22.00;99.90
25024;DHT22;13033;50.936;5.334;2023-08-07T15:30:48;21.80;99.90